Time;durP1;ratioP1;P1;durP2;ratioP2;P2;SDS_P1;SDS_P2;PMS_P1;PMS_P2;Temp;Humidity;BMP_temperature;BMP_pressure;BME280_temperature;BME280_humidity;BME280_pressure;Samples;Min_cycle;Max_cycle;Signal;HPM_P1;HPM_P2
2022/08/25 00:00:34;;;;;;;12.93;5.28;;;;;;;21.64;76.75;99077.09;6195200;23;20004;-94
2022/08/25 00:03:00;;;;;;;10.50;5.07;;;;;;;21.69;76.32;99076.84;6169479;23;20015;-93
2022/08/25 00:05:26;;;;;;;8.15;5.53;;;;;;;21.63;76.56;99075.50;6169545;23;20000;-95
2022/08/25 00:07:52;;;;;;;12.07;5.15;;;;;;;21.54;76.41;99060.00;6194455;23;19996;-94
2022/08/25 00:10:17;;;;;;;8.35;5.65;;;;;;;21.67;75.73;99062.69;6194620;23;20091;-94
2022/08/25 00:12:43;;;;;;;11.20;5.50;;;;;;;21.71;75.80;99067.13;6193593;23;20000;-94
2022/08/25 00:15:08;;;;;;;16.35;5.93;;;;;;;21.72;76.04;99076.13;6219412;23;20012;-90
2022/08/25 00:17:34;;;;;;;15.25;6.03;;;;;;;21.56;76.74;99074.16;6193454;23;20000;-90
2022/08/25 00:20:00;;;;;;;13.35;5.78;;;;;;;21.43;77.22;99066.34;6218248;23;20075;-90
2022/08/25 00:22:25;;;;;;;14.73;6.20;;;;;;;21.37;77.02;99069.31;6218366;23;20003;-91
2022/08/25 00:24:50;;;;;;;10.05;5.70;;;;;;;21.41;77.25;99063.91;6192960;23;20004;-91
2022/08/25 00:27:16;;;;;;;11.52;5.55;;;;;;;21.49;77.26;99073.16;6218198;23;20478;-91
2022/08/25 00:29:42;;;;;;;18.15;5.35;;;;;;;21.58;77.37;99084.75;6193648;23;19996;-91
2022/08/25 00:32:07;;;;;;;13.82;5.78;;;;;;;21.52;77.10;99078.75;6218230;23;20004;-90
2022/08/25 00:34:36;;;;;;;9.30;5.43;;;;;;;21.51;76.47;99063.44;6218185;23;20339;-90
2022/08/25 00:37:03;;;;;;;19.10;6.90;;;;;;;21.45;76.88;99056.63;6218391;23;20046;-91
2022/08/25 00:39:29;;;;;;;11.10;5.85;;;;;;;21.46;77.01;99052.75;6245679;23;20050;-91
2022/08/25 00:41:55;;;;;;;12.20;5.82;;;;;;;21.55;76.93;99056.13;6193348;23;20001;-91
2022/08/25 00:44:21;;;;;;;18.77;6.22;;;;;;;21.58;76.53;99058.16;6217795;23;20000;-91
2022/08/25 00:46:49;;;;;;;10.02;5.60;;;;;;;21.57;76.71;99053.03;6218318;23;20343;-90
2022/08/25 00:49:19;;;;;;;12.85;5.72;;;;;;;21.51;76.75;99041.53;6193293;23;20000;-90
2022/08/25 00:52:12;;;;;;;9.45;5.30;;;;;;;21.54;76.48;99042.75;6193906;23;20000;-90
2022/08/25 00:54:39;;;;;;;8.88;5.10;;;;;;;21.53;76.81;99061.16;6197536;23;20058;-91
2022/08/25 00:57:05;;;;;;;12.30;5.55;;;;;;;21.47;76.90;99048.84;6218660;23;20049;-91
2022/08/25 00:59:30;;;;;;;16.27;5.72;;;;;;;21.34;78.20;99048.06;6218367;23;20075;-90
2022/08/25 01:01:57;;;;;;;14.23;6.32;;;;;;;21.07;78.31;99037.91;6192726;23;20000;-90
2022/08/25 01:04:23;;;;;;;16.02;6.93;;;;;;;21.08;79.03;99034.00;6218352;23;20006;-91
2022/08/25 01:06:48;;;;;;;10.55;5.60;;;;;;;20.94;79.46;99040.69;6193324;23;20343;-90
2022/08/25 01:09:14;;;;;;;11.68;6.95;;;;;;;20.89;79.29;99034.63;6194022;23;20003;-90
2022/08/25 01:11:40;;;;;;;11.73;5.10;;;;;;;20.84;79.29;99022.00;6194571;23;20004;-90
2022/08/25 01:14:06;;;;;;;10.20;5.90;;;;;;;20.81;79.92;99030.09;6195306;23;19996;-90
2022/08/25 01:16:37;;;;;;;15.35;6.50;;;;;;;20.91;79.64;99041.34;6169848;23;19996;-91
2022/08/25 01:19:02;;;;;;;13.77;6.60;;;;;;;20.68;80.23;99019.16;6195464;23;20004;-90
2022/08/25 01:21:29;;;;;;;10.40;6.05;;;;;;;20.75;80.46;99024.88;6195215;23;20031;-91
2022/08/25 01:23:57;;;;;;;13.77;6.32;;;;;;;20.77;79.99;99024.50;6220305;23;20077;-90
2022/08/25 01:26:23;;;;;;;10.70;5.88;;;;;;;20.76;80.28;99022.94;6195222;23;20067;-91
2022/08/25 01:31:35;;;;;;;11.98;6.38;;;;;;;20.78;79.83;99029.63;6223827;23;20014;-90
2022/08/25 01:34:00;;;;;;;11.75;6.63;;;;;;;20.55;80.03;99001.94;6194655;23;20003;-90
2022/08/25 01:36:26;;;;;;;15.50;7.13;;;;;;;20.71;80.23;99029.44;6169976;23;19996;-90
2022/08/25 01:38:51;;;;;;;13.27;6.90;;;;;;;20.55;80.34;99017.56;6194554;23;20073;-91
2022/08/25 01:41:26;;;;;;;11.73;6.82;;;;;;;20.54;81.11;99024.16;6194997;23;20000;-91
2022/08/25 01:43:51;;;;;;;14.90;7.75;;;;;;;20.43;80.97;99007.44;6195891;23;20000;-91
2022/08/25 01:46:17;;;;;;;12.38;7.15;;;;;;;20.54;81.12;99013.22;6194668;23;20022;-90
2022/08/25 01:48:42;;;;;;;17.10;7.78;;;;;;;20.41;81.48;99009.72;6219611;23;19996;-90
2022/08/25 01:51:08;;;;;;;13.05;7.05;;;;;;;20.62;80.62;99026.00;6220287;23;20338;-91
2022/08/25 01:53:33;;;;;;;11.35;6.55;;;;;;;20.66;80.18;99009.72;6194849;23;19996;-91
2022/08/25 01:56:04;;;;;;;12.35;7.13;;;;;;;20.67;79.56;99000.34;6194193;23;20070;-91
2022/08/25 01:58:34;;;;;;;15.25;6.95;;;;;;;20.65;80.35;98994.44;6196893;23;20423;-91
2022/08/25 02:01:01;;;;;;;12.48;7.68;;;;;;;20.75;79.41;99000.25;6194503;23;20004;-90
2022/08/25 02:03:27;;;;;;;12.18;6.78;;;;;;;20.89;79.40;99024.47;6195376;23;20324;-91
2022/08/25 02:05:53;;;;;;;16.50;6.53;;;;;;;20.74;79.23;98995.91;6169939;23;20004;-90
2022/08/25 02:08:19;;;;;;;12.48;6.18;;;;;;;20.69;80.01;99004.38;6195555;23;19996;-90
2022/08/25 02:10:45;;;;;;;13.77;7.20;;;;;;;20.66;79.81;99005.03;6219564;23;19996;-90
2022/08/25 02:13:11;;;;;;;15.82;7.13;;;;;;;20.43;80.59;98992.97;6194251;23;20004;-90
2022/08/25 02:15:43;;;;;;;16.55;7.65;;;;;;;20.57;80.42;98994.19;6195256;23;20419;-90
2022/08/25 02:18:12;;;;;;;11.63;6.70;;;;;;;20.33;80.83;98978.59;6194328;23;20095;-91
2022/08/25 02:20:38;;;;;;;15.65;7.35;;;;;;;20.44;81.51;98989.06;6195862;23;20250;-91
2022/08/25 02:23:03;;;;;;;15.73;7.88;;;;;;;20.32;81.34;98971.56;6194412;23;19996;-91
2022/08/25 02:25:29;;;;;;;12.85;7.35;;;;;;;20.51;80.75;98997.53;6194400;23;20434;-91
2022/08/25 02:27:55;;;;;;;15.43;7.45;;;;;;;20.55;80.35;99009.38;6169916;23;20003;-90
2022/08/25 02:30:20;;;;;;;12.07;7.53;;;;;;;20.56;80.53;98997.28;6194336;23;20007;-91
2022/08/25 02:32:46;;;;;;;14.43;6.88;;;;;;;20.66;79.81;98998.78;6194018;23;20004;-91
2022/08/25 02:35:11;;;;;;;18.35;7.90;;;;;;;20.73;79.65;98999.78;6169141;23;19997;-91
2022/08/25 02:37:37;;;;;;;14.82;6.85;;;;;;;20.82;78.73;99007.06;6194135;23;19996;-90
2022/08/25 02:40:03;;;;;;;12.05;6.70;;;;;;;20.76;78.70;99001.81;6169419;23;20517;-90
2022/08/25 02:42:29;;;;;;;9.20;6.65;;;;;;;20.69;79.02;98995.34;6194042;23;20011;-91
2022/08/25 02:44:54;;;;;;;11.65;7.28;;;;;;;20.74;79.17;98997.84;6219264;23;20416;-90
2022/08/25 02:47:21;;;;;;;13.68;6.65;;;;;;;20.74;78.96;99004.09;6194083;23;20412;-91
2022/08/25 02:49:47;;;;;;;14.95;6.53;;;;;;;20.61;79.44;98996.25;6194165;23;20004;-91
2022/08/25 02:52:13;;;;;;;19.00;7.10;;;;;;;20.59;79.19;99002.09;6194448;23;20454;-92
2022/08/25 02:54:38;;;;;;;13.43;7.10;;;;;;;20.65;79.24;98999.91;6193928;23;20011;-91
2022/08/25 02:57:04;;;;;;;14.15;7.00;;;;;;;20.58;79.54;99006.75;6169236;23;19996;-91
2022/08/25 02:59:29;;;;;;;10.02;6.55;;;;;;;20.51;79.53;98994.78;6194341;23;20008;-91
2022/08/25 03:01:54;;;;;;;15.27;7.47;;;;;;;20.50;80.09;98998.66;6193610;23;19992;-91
2022/08/25 03:04:20;;;;;;;13.07;6.90;;;;;;;20.50;80.30;98995.91;6194081;23;20062;-90
2022/08/25 03:06:45;;;;;;;16.05;6.50;;;;;;;20.44;79.87;98997.28;6194750;23;20000;-91
2022/08/25 03:09:11;;;;;;;13.07;7.63;;;;;;;20.46;79.70;98995.00;6168886;23;20077;-90
2022/08/25 03:11:37;;;;;;;13.65;7.15;;;;;;;20.64;79.30;98995.59;6193799;23;20004;-90
2022/08/25 03:14:06;;;;;;;8.85;6.00;;;;;;;20.68;78.69;98991.81;6194011;23;20007;-91
2022/08/25 03:16:31;;;;;;;13.02;6.88;;;;;;;20.68;78.20;98975.41;6194139;23;20000;-90
2022/08/25 03:18:57;;;;;;;11.00;6.28;;;;;;;20.64;78.93;98988.16;6169094;23;20011;-91
2022/08/25 03:21:23;;;;;;;15.80;6.32;;;;;;;20.65;78.77;98997.97;6193929;23;20003;-90
2022/08/25 03:23:48;;;;;;;15.43;7.00;;;;;;;20.53;79.66;99000.72;6194077;23;20004;-90
2022/08/25 03:28:59;;;;;;;9.43;6.60;;;;;;;20.59;79.31;99010.31;6201881;23;20516;-90
2022/08/25 03:31:26;;;;;;;20.33;6.60;;;;;;;20.54;78.88;99002.28;6193390;23;20008;-90
2022/08/25 03:33:52;;;;;;;15.52;7.20;;;;;;;20.53;78.78;98996.03;6194479;23;19999;-90
2022/08/25 03:36:18;;;;;;;11.13;6.63;;;;;;;20.63;78.57;98994.78;6194343;23;20057;-90
2022/08/25 03:38:43;;;;;;;17.23;7.13;;;;;;;20.62;78.60;99006.88;6193769;23;20431;-91
2022/08/25 03:41:16;;;;;;;17.58;7.22;;;;;;;20.50;79.55;98990.44;6193628;23;20027;-90
2022/08/25 03:43:42;;;;;;;8.52;6.10;;;;;;;20.54;78.75;98994.09;6195051;23;20003;-90
2022/08/25 03:46:07;;;;;;;12.77;6.57;;;;;;;20.56;79.20;99021.88;6193065;23;20000;-90
2022/08/25 03:48:32;;;;;;;14.05;7.47;;;;;;;20.44;79.44;99013.69;6193664;23;20431;-91
2022/08/25 03:50:58;;;;;;;11.18;6.90;;;;;;;20.58;78.62;99020.44;6169143;23;20008;-91
2022/08/25 03:53:23;;;;;;;12.23;6.88;;;;;;;20.58;78.69;99008.69;6193184;23;20058;-90
2022/08/25 03:55:49;;;;;;;12.93;6.95;;;;;;;20.74;78.00;99027.94;6194296;23;20330;-91
2022/08/25 03:58:14;;;;;;;20.60;7.57;;;;;;;20.65;78.34;99024.53;6193755;23;20320;-91
2022/08/25 04:00:40;;;;;;;13.13;6.57;;;;;;;20.66;78.18;99023.41;6219321;23;20296;-91
2022/08/25 04:03:06;;;;;;;15.20;6.95;;;;;;;20.60;78.75;99020.09;6169293;23;19996;-91
2022/08/25 04:05:31;;;;;;;17.02;7.28;;;;;;;20.69;77.78;99018.03;6193512;23;19996;-92
2022/08/25 04:07:57;;;;;;;17.58;7.25;;;;;;;20.84;77.54;99034.88;6193385;23;20003;-91
2022/08/25 04:10:22;;;;;;;14.23;6.32;;;;;;;20.80;77.62;99021.09;6218466;23;20003;-93
2022/08/25 04:12:48;;;;;;;14.40;7.00;;;;;;;20.78;77.66;99013.22;6194552;23;20091;-91
2022/08/25 04:15:13;;;;;;;12.30;6.97;;;;;;;20.86;77.94;99027.91;6194023;23;20050;-90
2022/08/25 04:17:39;;;;;;;13.52;6.75;;;;;;;20.92;77.31;99025.75;6168149;23;20000;-90
2022/08/25 04:20:07;;;;;;;15.13;7.35;;;;;;;20.93;77.51;99030.84;6193768;23;20067;-91
2022/08/25 04:22:32;;;;;;;15.32;7.90;;;;;;;20.84;78.09;99032.16;6194022;23;20050;-91
2022/08/25 04:24:58;;;;;;;10.35;6.68;;;;;;;20.77;77.70;99024.50;6218118;23;20000;-91
2022/08/25 04:27:23;;;;;;;10.77;6.93;;;;;;;20.94;78.17;99051.63;6217929;23;20438;-92
2022/08/25 04:29:49;;;;;;;23.50;11.73;;;;;;;20.85;78.04;99031.00;6218605;23;20435;-93
2022/08/25 04:32:14;;;;;;;17.33;8.23;;;;;;;20.63;78.73;99011.22;6168835;23;20004;-91
2022/08/25 04:34:42;;;;;;;18.35;7.78;;;;;;;20.74;78.15;99019.75;6170451;23;20409;-91
2022/08/25 04:37:07;;;;;;;13.75;7.78;;;;;;;20.88;78.24;99031.13;6219010;23;19996;-92
2022/08/25 04:39:33;;;;;;;13.88;7.68;;;;;;;20.87;78.01;99040.44;6192210;23;20474;-93
2022/08/25 04:41:59;;;;;;;12.20;6.60;;;;;;;20.96;77.84;99038.41;6193136;23;20004;-91
2022/08/25 04:44:25;;;;;;;14.68;6.35;;;;;;;21.08;76.93;99023.06;6193479;23;20004;-90
2022/08/25 04:46:50;;;;;;;15.30;7.13;;;;;;;21.10;77.00;99023.50;6221718;23;19996;-92
2022/08/25 04:49:15;;;;;;;14.32;6.97;;;;;;;21.11;76.44;99012.22;6195683;23;20446;-91
2022/08/25 04:51:41;;;;;;;16.50;7.55;;;;;;;21.06;77.06;99006.97;6170384;23;20423;-92
2022/08/25 04:54:09;;;;;;;18.42;8.07;;;;;;;21.10;76.23;98998.88;6170397;23;20446;-92
2022/08/25 04:56:34;;;;;;;16.20;6.55;;;;;;;21.44;75.75;99029.59;6195486;23;20003;-91
2022/08/25 04:59:08;;;;;;;13.98;6.57;;;;;;;21.28;76.11;98997.44;6220873;23;20089;-90
2022/08/25 05:01:34;;;;;;;19.20;7.32;;;;;;;21.39;75.72;99011.41;6195464;23;19992;-93
2022/08/25 05:04:01;;;;;;;19.58;8.40;;;;;;;21.74;74.56;99021.78;6170092;23;20425;-92
2022/08/25 05:06:27;;;;;;;13.95;6.65;;;;;;;21.70;74.57;98998.97;6195040;23;20358;-90
2022/08/25 05:08:53;;;;;;;8.80;5.20;;;;;;;21.87;73.34;99003.31;6219502;23;20004;-90
2022/08/25 05:11:19;;;;;;;15.30;6.90;;;;;;;21.94;73.89;99012.50;6196570;23;20004;-95
2022/08/25 05:13:49;;;;;;;13.25;5.90;;;;;;;21.95;72.58;98994.91;6202944;23;19996;-93
2022/08/25 05:16:14;;;;;;;10.27;5.35;;;;;;;22.10;72.25;99007.03;6207304;23;20002;-94
2022/08/25 05:18:40;;;;;;;9.43;5.03;;;;;;;22.17;72.31;99006.41;6207880;23;19996;-94
2022/08/25 05:21:16;;;;;;;27.38;18.10;;;;;;;22.09;72.35;98999.16;6224236;23;20427;-96
2022/08/25 05:23:42;;;;;;;17.83;11.30;;;;;;;22.18;71.71;98997.00;6205787;23;20002;-95
2022/08/25 05:26:12;;;;;;;9.48;6.20;;;;;;;22.40;71.61;99023.03;6210034;23;20307;-93
2022/08/25 05:28:40;;;;;;;8.70;5.28;;;;;;;22.35;71.52;99020.56;6202130;23;20000;-95
2022/08/25 05:31:24;;;;;;;10.52;5.20;;;;;;;22.27;71.93;99016.06;6153920;23;20001;-95
2022/08/25 05:33:50;;;;;;;13.23;5.90;;;;;;;22.28;71.14;99012.16;6139792;23;20001;-95
2022/08/25 05:36:19;;;;;;;9.55;5.25;;;;;;;22.39;71.50;99022.25;6143859;23;20063;-95
2022/08/25 05:38:46;;;;;;;19.75;13.48;;;;;;;22.43;70.95;99030.53;6149591;23;20019;-93
2022/08/25 05:41:22;;;;;;;12.30;5.07;;;;;;;22.43;70.62;99022.31;6150547;23;19996;-96
2022/08/25 05:43:50;;;;;;;8.82;5.57;;;;;;;22.56;70.52;99028.50;6150169;23;20454;-92
2022/08/25 05:46:20;;;;;;;10.18;6.95;;;;;;;22.64;70.86;99062.38;6139537;23;20008;-94
2022/08/25 05:48:46;;;;;;;11.75;5.75;;;;;;;22.56;70.96;99066.94;6146535;23;20028;-95
2022/08/25 05:51:12;;;;;;;7.97;4.82;;;;;;;22.51;70.88;99048.75;6143528;23;20011;-95
2022/08/25 05:53:41;;;;;;;8.57;5.50;;;;;;;22.60;70.11;99045.84;6147034;23;20016;-95
2022/08/25 05:56:17;;;;;;;13.15;6.45;;;;;;;22.58;69.60;99037.97;6148256;23;20001;-96
2022/08/25 05:58:43;;;;;;;12.80;4.90;;;;;;;22.81;68.87;99034.56;6152876;23;20016;-95
2022/08/25 06:04:02;;;;;;;12.82;5.30;;;;;;;22.95;68.79;99045.03;6202942;23;20030;-92
2022/08/25 06:06:27;;;;;;;11.45;5.10;;;;;;;;;;6211887;23;19996;-94
2022/08/25 06:08:55;;;;;;;16.98;5.50;;;;;;;22.98;68.17;99033.34;6224474;23;20378;-94
2022/08/25 06:11:21;;;;;;;13.30;5.30;;;;;;;23.16;67.76;99050.25;6199330;23;20043;-93
2022/08/25 06:13:46;;;;;;;11.65;4.82;;;;;;;23.12;67.97;99044.66;6200257;23;20482;-93
2022/08/25 06:16:12;;;;;;;14.55;5.40;;;;;;;23.08;67.27;99027.31;6195989;23;19996;-95
2022/08/25 06:18:37;;;;;;;11.02;4.93;;;;;;;23.18;67.15;99025.94;6201049;23;20489;-94
2022/08/25 06:21:13;;;;;;;12.55;4.97;;;;;;;23.27;67.42;99037.50;6202138;23;20415;-95
2022/08/25 06:23:41;;;;;;;13.63;5.20;;;;;;;23.30;67.32;99030.47;6209410;23;20031;-96
2022/08/25 06:26:13;;;;;;;14.88;5.10;;;;;;;23.36;66.63;99031.78;6183229;23;20010;-95
2022/08/25 06:28:43;;;;;;;9.95;4.13;;;;;;;23.43;65.81;99020.94;6206370;23;20008;-95
2022/08/25 06:31:41;;;;;;;15.48;4.95;;;;;;;23.65;65.67;99037.81;6204883;23;20008;-96
2022/08/25 06:34:06;;;;;;;9.40;4.72;;;;;;;23.76;65.13;99038.81;6229646;23;20008;-95
2022/08/25 06:36:40;;;;;;;13.18;5.28;;;;;;;23.63;64.61;99015.41;6205182;23;20019;-94
2022/08/25 06:39:06;;;;;;;7.35;4.32;;;;;;;23.79;63.83;99021.63;6208686;23;20048;-95
2022/08/25 06:41:44;;;;;;;12.25;4.75;;;;;;;23.65;62.85;99010.34;6186431;23;19990;-94
2022/08/25 06:44:29;;;;;;;10.85;4.03;;;;;;;23.72;62.95;99043.44;6202320;23;20012;-95
2022/08/25 06:47:04;;;;;;;7.25;4.05;;;;;;;23.53;63.45;99036.84;6202689;23;20007;-95
2022/08/25 06:49:49;;;;;;;10.82;4.30;;;;;;;23.69;63.40;99044.97;6201693;23;20000;-92
2022/08/25 06:52:27;;;;;;;10.50;4.25;;;;;;;23.70;62.77;99029.28;6193946;23;20000;-93
2022/08/25 06:54:53;;;;;;;9.73;4.85;;;;;;;23.76;62.27;99012.16;6221125;23;20011;-90
2022/08/25 06:57:20;;;;;;;12.52;4.18;;;;;;;23.93;61.32;99032.09;6195586;23;20071;-94
2022/08/25 07:00:39;;;;;;;11.27;4.40;;;;;;;23.97;61.83;99038.44;6221008;23;20015;-95
2022/08/25 07:03:05;;;;;;;11.35;3.80;;;;;;;23.73;60.87;99010.09;6213529;23;20001;-94
2022/08/25 07:05:30;;;;;;;10.73;5.05;;;;;;;23.96;60.71;99014.84;6190506;23;20340;-94
2022/08/25 07:07:56;;;;;;;10.27;5.00;;;;;;;24.18;60.06;99019.53;6162232;23;20007;-91
2022/08/25 07:10:22;;;;;;;10.57;3.97;;;;;;;24.37;59.89;99031.63;6212793;23;20075;-91
2022/08/25 07:12:47;;;;;;;13.75;4.18;;;;;;;24.41;59.28;99037.97;6212751;23;19997;-90
2022/08/25 07:15:13;;;;;;;10.20;3.42;;;;;;;24.28;58.54;99015.38;6212551;23;20004;-89
2022/08/25 07:17:41;;;;;;;13.20;3.78;;;;;;;24.30;57.83;99031.50;6215511;23;20167;-95
2022/08/25 07:20:07;;;;;;;15.57;3.88;;;;;;;24.39;57.43;99012.78;6187112;23;20501;-91
2022/08/25 07:22:33;;;;;;;8.93;4.10;;;;;;;24.55;57.56;99027.22;6186931;23;20009;-90
2022/08/25 07:24:58;;;;;;;15.80;4.15;;;;;;;24.51;57.62;99009.03;6188918;23;20736;-91
2022/08/25 07:27:25;;;;;;;11.50;3.50;;;;;;;24.62;56.55;99014.72;6186329;23;20351;-91
2022/08/25 07:29:52;;;;;;;87.88;66.28;;;;;;;24.52;57.75;99003.16;6186409;23;20008;-92
2022/08/25 07:32:18;;;;;;;37.13;22.75;;;;;;;24.66;57.20;99040.34;6212314;23;20108;-92
2022/08/25 07:37:37;;;;;;;8.05;3.45;;;;;;;24.77;56.92;99038.53;6201766;23;20141;-92
2022/08/25 07:40:04;;;;;;;15.73;5.18;;;;;;;24.79;56.75;99016.91;6196261;23;20016;-93
2022/08/25 07:42:30;;;;;;;14.93;5.38;;;;;;;24.76;57.38;99017.69;6196656;23;19997;-91
2022/08/25 07:44:55;;;;;;;19.42;4.60;;;;;;;24.98;56.59;99032.50;6221837;23;20027;-93
2022/08/25 07:47:21;;;;;;;11.73;4.18;;;;;;;25.07;55.22;99022.03;6193646;23;19996;-90
2022/08/25 07:50:11;;;;;;;11.82;5.25;;;;;;;25.29;54.22;99042.38;6244200;23;20037;-91
2022/08/25 07:52:36;;;;;;;11.88;4.00;;;;;;;25.01;54.86;99016.03;6219207;23;20324;-90
2022/08/25 07:55:02;;;;;;;14.05;3.83;;;;;;;25.18;54.83;99030.41;6218321;23;20050;-91
2022/08/25 07:57:34;;;;;;;15.98;6.80;;;;;;;25.20;54.45;99033.59;6193355;23;20107;-92
2022/08/25 07:59:59;;;;;;;;;;;;;;;25.29;54.26;99042.38;6220816;23;19996;-91
2022/08/25 08:02:25;;;;;;;11.70;3.88;;;;;;;25.22;54.14;99017.50;6218360;23;19903;-92
2022/08/25 08:04:51;;;;;;;9.95;3.72;;;;;;;25.38;54.14;99029.09;6193541;23;20395;-92
2022/08/25 08:07:22;;;;;;;11.95;3.85;;;;;;;25.46;53.04;99024.44;6193294;23;20000;-93
2022/08/25 08:09:47;;;;;;;14.80;4.10;;;;;;;25.52;52.41;99017.44;6194405;23;20007;-91
2022/08/25 08:12:13;;;;;;;8.10;3.70;;;;;;;25.69;52.38;99015.22;6192837;23;20000;-94
2022/08/25 08:14:38;;;;;;;13.25;3.95;;;;;;;25.74;51.53;99012.16;6193506;23;20019;-93
2022/08/25 08:17:06;;;;;;;12.27;3.55;;;;;;;25.55;51.97;99013.94;6193892;23;19996;-92
2022/08/25 08:19:32;;;;;;;8.73;3.60;;;;;;;25.49;52.21;98992.59;6193979;23;20034;-93
2022/08/25 08:21:58;;;;;;;13.15;3.90;;;;;;;25.60;52.28;99010.03;6169004;23;20004;-93
2022/08/25 08:24:28;;;;;;;12.63;4.60;;;;;;;25.75;52.04;99005.44;6194661;23;20473;-94
2022/08/25 08:26:53;;;;;;;17.15;3.88;;;;;;;25.99;51.95;98999.38;6220330;23;19996;-93
2022/08/25 08:29:21;;;;;;;13.75;5.00;;;;;;;26.12;51.85;99001.84;6194132;23;20419;-92
2022/08/25 08:31:49;;;;;;;14.77;3.67;;;;;;;26.16;51.99;99020.03;6245508;23;20001;-93
2022/08/25 08:34:15;;;;;;;10.10;3.38;;;;;;;26.08;51.64;98990.00;6193362;23;20004;-94
2022/08/25 08:36:40;;;;;;;13.77;3.95;;;;;;;25.97;52.22;98987.16;6244909;23;20053;-92
2022/08/25 08:39:07;;;;;;;15.65;4.03;;;;;;;26.16;49.85;98994.41;6218130;23;20012;-91
2022/08/25 08:44:46;;;;;;;17.85;3.95;;;;;;;25.96;50.96;99026.94;6222390;23;20038;-92
2022/08/25 08:47:36;;;;;;;14.98;3.65;;;;;;;25.98;50.80;99027.34;6245339;23;19996;-92
2022/08/25 08:50:21;;;;;;;15.85;3.80;;;;;;;25.98;50.95;99024.59;6218465;23;20000;-93
2022/08/25 08:53:04;;;;;;;13.75;3.80;;;;;;;25.96;51.50;99021.44;6218430;23;20027;-92
2022/08/25 08:56:11;;;;;;;14.07;3.53;;;;;;;25.95;51.17;99008.81;6196433;23;20016;-92
2022/08/25 08:59:00;;;;;;;8.77;3.15;;;;;;;26.03;51.03;98995.88;6152194;23;20013;-93
2022/08/25 09:01:29;;;;;;;12.45;4.30;;;;;;;26.20;51.34;99009.81;6128584;23;20464;-93
2022/08/25 09:04:21;;;;;;;12.75;4.47;;;;;;;26.25;50.77;99016.97;6173527;23;20004;-93
2022/08/25 09:06:49;;;;;;;11.48;4.00;;;;;;;26.31;50.29;99001.59;6228647;23;20000;-92
2022/08/25 09:09:54;;;;;;;15.32;3.88;;;;;;;26.36;50.58;99003.22;6218735;23;19996;-95
2022/08/25 09:12:40;;;;;;;17.33;4.32;;;;;;;26.70;49.50;99011.34;6225489;23;20004;-93
2022/08/25 09:15:11;;;;;;;13.60;5.30;;;;;;;26.83;49.85;99011.81;6219288;23;20004;-94
2022/08/25 09:17:49;;;;;;;14.00;3.67;;;;;;;26.83;49.40;98992.47;6218154;23;20000;-95
2022/08/25 09:20:58;;;;;;;17.25;2.88;;;;;;;26.89;47.36;98982.63;6194102;23;20000;-94
2022/08/25 09:23:38;;;;;;;10.32;2.97;;;;;;;26.71;47.02;98975.06;6189127;23;20420;-94
2022/08/25 09:29:10;;;;;;;8.23;2.92;;;;;;;26.84;45.66;98960.91;6214163;22;20055;-95
2022/08/25 09:31:40;;;;;;;9.00;2.78;;;;;;;26.79;46.86;98960.13;6172477;22;20025;-96
2022/08/25 09:46:34;;;;;;;16.38;3.88;;;;;;;26.85;46.27;98938.41;6253013;23;19915;-96
2022/08/25 09:49:17;;;;;;;9.52;2.78;;;;;;;27.22;45.56;98956.69;6200934;23;20044;-96
2022/08/25 09:51:45;;;;;;;12.07;2.63;;;;;;;27.21;45.57;98953.16;6177424;23;20004;-95
2022/08/25 09:54:19;;;;;;;10.98;3.80;;;;;;;27.21;45.88;98944.06;6204509;23;20416;-96
2022/08/25 09:56:58;;;;;;;11.80;2.55;;;;;;;27.24;44.40;98935.00;6205565;23;20004;-96
2022/08/25 09:59:34;;;;;;;7.40;2.20;;;;;;;27.23;44.54;98927.91;6142503;23;20005;-96
2022/08/25 10:02:04;;;;;;;8.10;2.47;;;;;;;27.30;45.30;98941.75;6090342;23;19998;-96
2022/08/25 10:04:53;;;;;;;14.68;2.90;;;;;;;27.38;44.54;98937.03;6139413;23;20054;-96
2022/08/25 10:07:35;;;;;;;12.30;2.42;;;;;;;27.26;45.21;98923.56;6235171;23;20016;-96
2022/08/25 10:10:06;;;;;;;;;;;;;;;27.49;45.04;98934.25;6176967;23;20435;-96
2022/08/25 10:12:38;;;;;;;13.80;3.30;;;;;;;27.46;44.71;98913.72;6226302;23;19908;-95
2022/08/25 10:15:26;;;;;;;13.77;2.72;;;;;;;27.50;43.30;98920.06;6196777;23;20424;-95
2022/08/25 10:17:55;;;;;;;9.95;2.45;;;;;;;27.76;44.12;98938.22;6205570;23;20007;-96
2022/08/25 10:21:12;;;;;;;10.32;2.70;;;;;;;27.78;43.08;98949.69;6225985;23;19996;-94
2022/08/25 10:23:44;;;;;;;12.60;2.58;;;;;;;27.81;43.97;98942.59;6163638;23;20000;-96
2022/08/25 10:26:15;;;;;;;15.20;2.83;;;;;;;27.74;42.76;98929.53;6232799;23;20027;-96
2022/08/25 10:28:46;;;;;;;7.32;2.45;;;;;;;27.75;42.80;98928.34;6200314;23;20008;-96
2022/08/25 10:31:23;;;;;;;7.80;2.67;;;;;;;27.78;42.35;98926.78;6202438;23;20064;-95
2022/08/25 10:37:36;;;;;;;10.98;2.47;;;;;;;28.11;41.96;98922.81;6217412;23;20010;-94
2022/08/25 10:40:10;;;;;;;11.77;3.15;;;;;;;28.09;41.36;98918.88;6224961;23;20020;-96
2022/08/25 10:42:40;;;;;;;11.48;2.33;;;;;;;28.06;41.21;98908.59;6175598;23;19997;-96
2022/08/25 10:45:48;;;;;;;15.07;2.38;;;;;;;28.25;41.64;98927.53;6196774;23;20501;-95
2022/08/25 10:48:33;;;;;;;6.80;3.20;;;;;;;28.21;41.06;98912.91;6151433;23;20005;-94
2022/08/25 10:54:10;;;;;;;;;;;;;;;28.20;41.44;98914.09;6205519;23;20020;-96
2022/08/25 10:56:40;;;;;;;12.20;2.70;;;;;;;28.04;42.11;98895.16;6199231;23;19914;-93
2022/08/25 10:59:31;;;;;;;11.90;2.80;;;;;;;28.23;41.11;98907.78;6173673;23;20411;-92
2022/08/25 11:01:58;;;;;;;5.03;2.45;;;;;;;28.39;41.27;98908.13;6177785;23;20062;-93
2022/08/25 11:04:35;;;;;;;12.05;2.85;;;;;;;28.41;40.93;98883.59;6214920;23;20127;-91
2022/08/25 11:07:04;;;;;;;7.57;2.15;;;;;;;28.51;41.12;98895.06;6189968;23;20007;-93
2022/08/25 11:09:33;;;;;;;8.73;2.40;;;;;;;28.52;41.66;98918.81;6164430;23;20451;-90
2022/08/25 11:12:09;;;;;;;10.00;2.40;;;;;;;28.44;41.57;98886.75;6163513;23;20008;-93
2022/08/25 11:15:02;;;;;;;8.45;2.28;;;;;;;28.69;41.18;98911.63;6164509;23;20041;-93
2022/08/25 11:17:41;;;;;;;5.20;2.08;;;;;;;28.41;40.85;98875.28;6183639;23;20509;-94
2022/08/25 11:20:12;;;;;;;9.38;2.38;;;;;;;28.62;40.49;98890.28;6165010;23;20433;-96
2022/08/25 11:29:15;;;;;;;9.05;2.30;;;;;;;28.97;40.64;98896.81;6203632;22;20049;-95
2022/08/25 11:31:43;;;;;;;10.63;2.80;;;;;;;29.02;39.31;98880.56;6182455;23;20080;-90
2022/08/25 11:34:14;;;;;;;17.13;2.92;;;;;;;29.01;40.14;98890.06;6129247;23;20013;-91
2022/08/25 11:36:49;;;;;;;10.38;2.63;;;;;;;28.97;40.32;98863.56;6129339;23;20391;-90
2022/08/25 11:39:35;;;;;;;6.80;2.13;;;;;;;29.13;39.94;98866.66;6157867;23;20068;-90
2022/08/25 11:42:52;;;;;;;15.85;2.65;;;;;;;29.34;40.26;98873.25;6160240;23;19992;-91
2022/08/25 11:45:39;;;;;;;7.90;2.33;;;;;;;29.30;39.69;98878.03;6190736;23;20001;-94
2022/08/25 11:48:53;;;;;;;11.73;2.40;;;;;;;29.25;39.14;98867.38;6174950;23;20027;-95
2022/08/25 11:54:19;;;;;;;9.13;2.42;;;;;;;28.92;39.97;98853.69;6216886;23;20024;-96
2022/08/25 11:56:56;;;;;;;6.85;2.45;;;;;;;29.04;39.63;98843.34;6169963;23;20053;-94
2022/08/25 11:59:50;;;;;;;9.13;2.30;;;;;;;29.36;39.48;98874.41;6196579;23;20003;-90
2022/08/25 12:14:19;;;;;;;3.97;1.75;;;;;;;29.26;39.14;98828.16;6191610;22;20020;-96
2022/08/25 12:17:24;;;;;;;16.23;2.20;;;;;;;29.50;38.49;98850.53;6204483;22;20020;-95
2022/08/25 12:19:52;;;;;;;10.93;2.25;;;;;;;29.40;38.46;98830.00;6186206;23;20047;-96
2022/08/25 12:22:33;;;;;;;10.38;2.45;;;;;;;29.68;37.26;98848.41;6105133;23;20020;-93
2022/08/25 12:25:02;;;;;;;5.55;1.90;;;;;;;29.67;37.27;98835.72;6152360;23;20155;-96
2022/08/25 12:27:37;;;;;;;5.53;1.90;;;;;;;29.78;37.93;98835.63;6132014;23;20042;-94
2022/08/25 12:30:22;;;;;;;9.13;2.97;;;;;;;29.86;38.64;98820.47;6131169;23;20014;-95
2022/08/25 12:33:29;;;;;;;10.48;2.40;;;;;;;30.03;37.15;98824.28;6083298;23;20032;-95
2022/08/25 12:36:11;;;;;;;;;;;;;;;;;;;;;
2022/08/25 12:38:46;;;;;;;9.68;2.30;;;;;;;30.37;36.12;98826.28;6124233;23;20001;-94
2022/08/25 12:41:31;;;;;;;7.22;2.08;;;;;;;30.29;36.19;98828.38;6092143;23;20061;-96
2022/08/25 12:44:37;;;;;;;4.93;2.22;;;;;;;30.22;37.37;98826.44;6150237;22;20021;-96